createdAt,value
2023-04-04T00:00:24.569Z,1.70
2023-04-04T00:02:51.611Z,4.85
2023-04-04T00:05:18.849Z,3.67
2023-04-04T00:07:48.494Z,4.10
2023-04-04T00:10:15.513Z,4.03
2023-04-04T00:12:42.996Z,3.85
2023-04-04T00:15:10.023Z,4.70
2023-04-04T00:17:36.671Z,4.43
2023-04-04T00:20:04.174Z,4.18
2023-04-04T00:22:30.743Z,4.20
2023-04-04T00:24:57.144Z,4.30
2023-04-04T00:27:23.510Z,3.88
2023-04-04T00:29:49.890Z,4.45
2023-04-04T00:32:16.485Z,3.45
2023-04-04T00:34:43.132Z,4.95
2023-04-04T00:37:12.140Z,5.80
2023-04-04T00:39:38.513Z,3.75
2023-04-04T00:42:05.106Z,4.30
2023-04-04T00:44:32.468Z,3.70
2023-04-04T00:46:58.891Z,3.88
2023-04-04T00:49:25.281Z,4.45
2023-04-04T00:51:51.680Z,4.55
2023-04-04T00:54:18.240Z,4.90
2023-04-04T00:56:44.677Z,4.65
2023-04-04T00:59:11.449Z,4.70
2023-04-04T01:01:38.114Z,3.70
2023-04-04T01:04:05.613Z,4.13
2023-04-04T01:06:32.743Z,3.38
2023-04-04T01:08:59.943Z,4.13
2023-04-04T01:11:28.243Z,4.55
2023-04-04T01:13:55.730Z,4.45
2023-04-04T01:16:24.013Z,3.83
2023-04-04T01:18:52.669Z,4.75
2023-04-04T01:21:22.404Z,4.60
2023-04-04T01:24:13.311Z,4.97
2023-04-04T01:26:50.736Z,4.13
2023-04-04T01:29:17.489Z,4.88
2023-04-04T01:31:52.113Z,4.15
2023-04-04T01:34:44.487Z,4.20
2023-04-04T01:37:14.956Z,4.70
2023-04-04T01:39:53.862Z,5.50
2023-04-04T01:42:22.447Z,5.22
2023-04-04T01:44:56.146Z,4.65
2023-04-04T01:47:24.956Z,5.22
2023-04-04T01:49:53.881Z,4.88
2023-04-04T01:52:21.508Z,4.90
2023-04-04T01:54:47.912Z,4.72
2023-04-04T01:57:15.048Z,4.25
2023-04-04T01:59:41.488Z,4.65
2023-04-04T02:02:07.905Z,5.15
2023-04-04T02:04:34.350Z,5.35
2023-04-04T02:07:00.813Z,5.07
2023-04-04T02:09:27.377Z,5.18
2023-04-04T02:11:53.863Z,5.07
2023-04-04T02:14:20.695Z,5.50
2023-04-04T02:16:47.403Z,5.40
2023-04-04T02:19:13.835Z,5.30
2023-04-04T02:21:40.247Z,5.63
2023-04-04T02:24:07.086Z,5.00
2023-04-04T02:26:33.511Z,5.25
2023-04-04T02:28:59.860Z,4.95
2023-04-04T02:31:26.474Z,4.43
2023-04-04T02:33:52.930Z,5.57
2023-04-04T02:36:21.151Z,5.55
2023-04-04T02:38:49.501Z,5.22
2023-04-04T02:41:16.514Z,4.90
2023-04-04T02:43:43.210Z,5.18
2023-04-04T02:46:20.518Z,5.53
2023-04-04T02:48:51.963Z,5.38
2023-04-04T02:51:18.520Z,5.35
2023-04-04T02:53:45.161Z,6.60
2023-04-04T02:56:19.379Z,5.40
2023-04-04T02:58:45.887Z,5.93
2023-04-04T03:01:12.331Z,5.47
2023-04-04T03:03:39.059Z,4.95
2023-04-04T03:06:05.715Z,5.80
2023-04-04T03:08:32.186Z,5.60
2023-04-04T03:10:59.618Z,6.03
2023-04-04T03:13:26.911Z,5.15
2023-04-04T03:16:06.651Z,4.80
2023-04-04T03:18:52.027Z,5.90
2023-04-04T03:21:21.153Z,5.45
2023-04-04T03:23:47.588Z,5.70
2023-04-04T03:26:14.041Z,4.22
2023-04-04T03:28:40.530Z,4.43
2023-04-04T03:31:08.167Z,5.15
2023-04-04T03:33:38.483Z,4.40
2023-04-04T03:36:13.004Z,4.90
2023-04-04T03:38:39.824Z,5.13
2023-04-04T03:41:07.620Z,4.57
2023-04-04T03:43:34.283Z,4.53
2023-04-04T03:46:01.993Z,5.35
2023-04-04T03:48:29.441Z,4.85
2023-04-04T03:50:57.711Z,4.57
2023-04-04T03:53:25.107Z,4.70
2023-04-04T03:55:55.528Z,4.05
2023-04-04T03:58:22.675Z,4.28
2023-04-04T04:00:50.511Z,3.95
2023-04-04T04:03:17.550Z,4.68
2023-04-04T04:05:45.633Z,4.32
2023-04-04T04:08:12.158Z,4.07
2023-04-04T04:10:39.173Z,3.72
2023-04-04T04:13:05.771Z,4.63
2023-04-04T04:15:33.096Z,4.97
2023-04-04T04:18:01.983Z,5.88
2023-04-04T04:20:28.661Z,4.57
2023-04-04T04:22:56.287Z,4.90
2023-04-04T04:25:23.040Z,4.28
2023-04-04T04:28:18.529Z,4.55
2023-04-04T04:30:46.354Z,5.18
2023-04-04T04:33:14.803Z,4.63
2023-04-04T04:35:53.141Z,4.22
2023-04-04T04:38:21.773Z,4.57
2023-04-04T04:40:49.156Z,4.57
2023-04-04T04:43:23.606Z,4.43
2023-04-04T04:45:51.200Z,4.57
2023-04-04T04:48:18.070Z,4.30
2023-04-04T04:50:48.672Z,4.65
2023-04-04T04:53:22.081Z,4.65
2023-04-04T04:55:48.629Z,4.65
2023-04-04T04:58:17.336Z,4.38
2023-04-04T05:00:47.942Z,4.40
2023-04-04T05:03:14.405Z,4.60
2023-04-04T05:05:47.481Z,4.43
2023-04-04T05:08:15.649Z,4.70
2023-04-04T05:10:54.838Z,4.35
2023-04-04T05:13:23.716Z,4.53
2023-04-04T05:15:50.408Z,4.68
2023-04-04T05:18:17.293Z,4.90
2023-04-04T05:20:51.924Z,4.25
2023-04-04T05:23:18.522Z,3.88
2023-04-04T05:25:48.681Z,4.80
2023-04-04T05:28:16.314Z,4.93
2023-04-04T05:30:43.125Z,4.68
2023-04-04T05:33:16.817Z,4.50
2023-04-04T05:35:50.810Z,4.97
2023-04-04T05:38:17.835Z,5.07
2023-04-04T05:40:46.592Z,3.97
2023-04-04T05:43:14.573Z,4.53
2023-04-04T05:48:25.542Z,4.95
2023-04-04T05:50:53.042Z,4.57
2023-04-04T05:53:28.250Z,4.10
2023-04-04T05:55:54.949Z,4.55
2023-04-04T05:58:28.121Z,4.60
2023-04-04T06:00:57.425Z,4.30
2023-04-04T06:03:23.937Z,4.40
2023-04-04T06:05:52.784Z,5.15
2023-04-04T06:08:19.647Z,4.90
2023-04-04T06:10:46.259Z,5.10
2023-04-04T06:13:12.688Z,4.28
2023-04-04T06:15:41.902Z,4.88
2023-04-04T06:18:08.383Z,4.90
2023-04-04T06:20:34.897Z,5.15
2023-04-04T06:23:04.353Z,4.95
2023-04-04T06:25:32.427Z,5.03
2023-04-04T06:27:59.610Z,6.03
2023-04-04T06:30:26.610Z,4.80
2023-04-04T06:32:53.110Z,4.93
2023-04-04T06:35:22.286Z,5.13
2023-04-04T06:37:57.123Z,6.53
2023-04-04T06:40:25.118Z,4.35
2023-04-04T06:42:52.607Z,4.13
2023-04-04T06:45:21.163Z,4.20
2023-04-04T06:47:50.042Z,4.40
2023-04-04T06:50:16.982Z,4.20
2023-04-04T06:52:44.666Z,4.00
2023-04-04T06:55:11.614Z,3.72
2023-04-04T06:57:39.270Z,4.07
2023-04-04T07:00:06.439Z,3.78
2023-04-04T07:02:33.415Z,5.22
2023-04-04T07:04:59.833Z,4.28
2023-04-04T07:07:26.415Z,3.90
2023-04-04T07:09:52.891Z,4.05
2023-04-04T07:12:19.266Z,3.65
2023-04-04T07:14:45.738Z,3.65
2023-04-04T07:17:23.563Z,4.18
2023-04-04T07:19:50.447Z,3.00
2023-04-04T07:22:16.843Z,3.13
2023-04-04T07:24:43.403Z,3.10
2023-04-04T07:27:09.946Z,3.95
2023-04-04T07:29:36.975Z,3.65
2023-04-04T07:32:03.485Z,4.45
2023-04-04T07:34:29.936Z,3.38
2023-04-04T07:36:56.338Z,4.07
2023-04-04T07:39:23.603Z,3.22
2023-04-04T07:41:50.013Z,3.20
2023-04-04T07:44:16.454Z,3.78
2023-04-04T07:46:42.839Z,3.45
2023-04-04T07:49:09.361Z,3.97
2023-04-04T07:51:36.039Z,3.78
2023-04-04T07:54:02.958Z,3.70
2023-04-04T07:56:29.386Z,3.15
2023-04-04T07:58:56.110Z,3.00
2023-04-04T08:01:22.521Z,3.28
2023-04-04T08:03:50.141Z,3.22
2023-04-04T08:06:16.707Z,2.90
2023-04-04T08:08:43.225Z,2.92
2023-04-04T08:11:09.628Z,2.50
2023-04-04T08:13:36.033Z,3.90
2023-04-04T08:16:02.561Z,2.55
2023-04-04T08:18:29.003Z,3.42
2023-04-04T08:20:55.424Z,2.58
2023-04-04T08:23:21.785Z,2.90
2023-04-04T08:25:48.242Z,2.97
2023-04-04T08:28:15.462Z,2.97
2023-04-04T08:30:41.897Z,3.53
2023-04-04T08:33:09.351Z,3.17
2023-04-04T08:35:36.432Z,3.95
2023-04-04T08:38:06.030Z,2.92
2023-04-04T08:40:33.868Z,3.35
2023-04-04T08:43:01.726Z,4.00
2023-04-04T08:45:30.619Z,3.85
2023-04-04T08:47:59.319Z,3.00
2023-04-04T08:50:27.219Z,3.00
2023-04-04T08:52:54.549Z,2.80
2023-04-04T08:55:21.274Z,3.00
2023-04-04T08:57:47.771Z,2.80
2023-04-04T09:00:16.755Z,3.22
2023-04-04T09:03:32.906Z,4.07
2023-04-04T09:06:00.106Z,3.15
2023-04-04T09:08:26.551Z,3.00
2023-04-04T09:10:53.891Z,3.15
2023-04-04T09:13:20.783Z,2.67
2023-04-04T09:15:49.657Z,2.78
2023-04-04T09:18:16.838Z,3.30
2023-04-04T09:20:44.925Z,4.53
2023-04-04T09:23:13.616Z,4.40
2023-04-04T09:26:02.390Z,4.85
2023-04-04T09:28:30.193Z,4.97
2023-04-04T09:30:56.908Z,4.32
2023-04-04T09:33:24.496Z,4.90
2023-04-04T09:35:57.333Z,5.63
2023-04-04T09:38:25.251Z,4.97
2023-04-04T09:40:52.561Z,4.78
2023-04-04T09:43:22.024Z,5.38
2023-04-04T09:45:49.704Z,4.30
2023-04-04T09:48:32.200Z,4.53
2023-04-04T09:50:59.577Z,4.72
2023-04-04T09:53:26.262Z,4.38
2023-04-04T09:55:54.708Z,4.32
2023-04-04T09:58:26.745Z,4.70
2023-04-04T10:01:01.395Z,4.40
2023-04-04T10:03:29.649Z,4.65
2023-04-04T10:06:00.116Z,4.70
2023-04-04T10:08:28.966Z,5.32
2023-04-04T10:11:09.858Z,4.50
2023-04-04T10:13:40.672Z,4.53
2023-04-04T10:16:08.573Z,5.03
2023-04-04T10:18:35.933Z,4.80
2023-04-04T10:21:15.271Z,4.85
2023-04-04T10:23:46.322Z,4.07
2023-04-04T10:26:13.387Z,4.40
2023-04-04T10:28:40.688Z,4.47
2023-04-04T10:31:24.324Z,4.32
2023-04-04T10:34:25.344Z,9.13
2023-04-04T10:36:54.834Z,4.07
2023-04-04T10:39:27.696Z,6.00
2023-04-04T10:41:56.248Z,5.10
2023-04-04T10:44:30.016Z,4.65
2023-04-04T10:46:59.581Z,4.20
2023-04-04T10:49:27.648Z,4.65
2023-04-04T10:51:57.176Z,4.35
2023-04-04T10:54:28.962Z,4.22
2023-04-04T10:57:00.548Z,4.90
2023-04-04T10:59:27.227Z,4.15
2023-04-04T11:02:01.755Z,4.85
2023-04-04T11:04:37.475Z,4.78
2023-04-04T11:07:10.106Z,5.05
2023-04-04T11:09:48.196Z,4.45
2023-04-04T11:12:23.223Z,4.60
2023-04-04T11:15:02.373Z,4.22
2023-04-04T11:18:17.905Z,3.90
2023-04-04T11:20:54.212Z,4.68
2023-04-04T11:23:22.772Z,4.80
2023-04-04T11:25:56.724Z,4.85
2023-04-04T11:28:35.357Z,4.90
2023-04-04T11:31:17.566Z,4.50
2023-04-04T11:34:05.633Z,4.25
2023-04-04T11:36:38.613Z,4.85
2023-04-04T11:39:13.182Z,4.45
2023-04-04T11:42:14.125Z,4.53
2023-04-04T11:45:02.976Z,3.97
2023-04-04T11:47:32.633Z,4.18
2023-04-04T11:50:01.444Z,4.28
2023-04-04T11:52:35.010Z,4.75
2023-04-04T11:55:01.556Z,4.00
2023-04-04T11:57:28.178Z,4.32
2023-04-04T11:59:54.744Z,4.20
2023-04-04T12:02:27.327Z,4.47
2023-04-04T12:04:53.933Z,3.92
2023-04-04T12:07:20.485Z,4.03
2023-04-04T12:09:47.976Z,4.40
2023-04-04T12:12:18.314Z,4.07
2023-04-04T12:14:45.185Z,4.43
2023-04-04T12:17:11.864Z,3.67
2023-04-04T12:19:41.192Z,4.00
2023-04-04T12:22:10.862Z,3.75
2023-04-04T12:24:37.792Z,4.18
2023-04-04T12:27:05.122Z,3.70
2023-04-04T12:29:36.164Z,5.10
2023-04-04T12:32:03.613Z,4.05
2023-04-04T12:34:33.040Z,4.28
2023-04-04T12:37:01.646Z,4.22
2023-04-04T12:39:29.408Z,4.78
2023-04-04T12:42:02.314Z,5.50
2023-04-04T12:44:36.549Z,4.60
2023-04-04T12:47:08.815Z,3.90
2023-04-04T12:49:48.617Z,3.67
2023-04-04T12:52:23.313Z,4.05
2023-04-04T12:55:06.836Z,4.78
2023-04-04T12:57:34.916Z,6.00
2023-04-04T13:00:04.479Z,4.07
2023-04-04T13:02:30.956Z,4.75
2023-04-04T13:04:59.976Z,4.70
2023-04-04T13:07:28.734Z,4.65
2023-04-04T13:09:58.115Z,3.90
2023-04-04T13:12:24.951Z,4.82
2023-04-04T13:15:03.024Z,5.38
2023-04-04T13:17:42.264Z,4.60
2023-04-04T13:20:09.233Z,5.05
2023-04-04T13:22:37.080Z,4.60
2023-04-04T13:25:05.186Z,5.13
2023-04-04T13:27:31.652Z,4.65
2023-04-04T13:29:58.040Z,4.30
2023-04-04T13:32:24.450Z,4.68
2023-04-04T13:34:50.943Z,4.55
2023-04-04T13:37:17.500Z,3.67
2023-04-04T13:39:43.887Z,5.38
2023-04-04T13:42:10.622Z,5.85
2023-04-04T13:44:37.025Z,5.43
2023-04-04T13:47:03.412Z,5.15
2023-04-04T13:49:29.848Z,4.25
2023-04-04T13:51:56.298Z,4.20
2023-04-04T13:54:22.698Z,4.93
2023-04-04T13:56:49.035Z,4.55
2023-04-04T13:59:15.508Z,5.57
2023-04-04T14:01:42.115Z,4.40
2023-04-04T14:04:22.600Z,4.93
2023-04-04T14:06:50.375Z,5.07
2023-04-04T14:09:16.739Z,4.60
2023-04-04T14:11:43.437Z,4.07
2023-04-04T14:14:09.829Z,5.20
2023-04-04T14:16:36.443Z,4.93
2023-04-04T14:19:02.934Z,4.90
2023-04-04T14:21:29.371Z,4.53
2023-04-04T14:23:55.765Z,4.40
2023-04-04T14:26:22.216Z,4.47
2023-04-04T14:28:48.681Z,4.68
2023-04-04T14:31:15.375Z,5.22
2023-04-04T14:33:41.947Z,4.30
2023-04-04T14:36:08.369Z,5.13
2023-04-04T14:38:34.781Z,4.88
2023-04-04T14:41:01.865Z,4.70
2023-04-04T14:43:28.349Z,4.22
2023-04-04T14:45:54.876Z,4.60
2023-04-04T14:48:21.352Z,5.60
2023-04-04T14:50:47.831Z,4.30
2023-04-04T14:53:14.260Z,3.72
2023-04-04T14:55:40.848Z,4.63
2023-04-04T14:58:08.237Z,4.22
2023-04-04T15:00:34.877Z,5.45
2023-04-04T15:03:01.508Z,4.70
2023-04-04T15:05:28.146Z,4.43
2023-04-04T15:07:55.492Z,4.20
2023-04-04T15:10:21.919Z,3.95
2023-04-04T15:12:48.317Z,5.68
2023-04-04T15:15:15.698Z,4.95
2023-04-04T15:17:42.182Z,4.63
2023-04-04T15:20:09.473Z,4.20
2023-04-04T15:22:36.233Z,4.47
2023-04-04T15:25:02.621Z,4.90
2023-04-04T15:27:29.072Z,5.28
2023-04-04T15:29:55.513Z,4.72
2023-04-04T15:32:22.018Z,5.97
2023-04-04T15:34:48.458Z,4.57
2023-04-04T15:37:15.681Z,4.55
2023-04-04T15:39:52.371Z,4.32
2023-04-04T15:42:20.576Z,4.45
2023-04-04T15:44:47.001Z,4.18
2023-04-04T15:47:13.535Z,5.10
2023-04-04T15:49:39.985Z,5.35
2023-04-04T15:52:06.383Z,6.03
2023-04-04T15:54:32.889Z,4.40
2023-04-04T15:56:59.567Z,4.65
2023-04-04T15:59:26.326Z,5.60
2023-04-04T16:01:53.188Z,4.15
2023-04-04T16:04:19.621Z,5.00
2023-04-04T16:06:46.091Z,4.53
2023-04-04T16:09:12.448Z,4.65
2023-04-04T16:11:39.113Z,4.32
2023-04-04T16:14:05.963Z,4.63
2023-04-04T16:16:32.382Z,4.82
2023-04-04T16:18:58.858Z,5.22
2023-04-04T16:21:26.317Z,4.88
2023-04-04T16:23:52.686Z,4.40
2023-04-04T16:26:20.587Z,4.47
2023-04-04T16:28:47.356Z,5.25
2023-04-04T16:31:14.866Z,4.65
2023-04-04T16:33:41.442Z,4.43
2023-04-04T16:36:08.011Z,5.13
2023-04-04T16:38:34.369Z,4.75
2023-04-04T16:41:01.576Z,4.70
2023-04-04T16:43:28.324Z,4.90
2023-04-04T16:45:54.709Z,4.28
2023-04-04T16:48:21.079Z,5.18
2023-04-04T16:50:47.491Z,4.60
2023-04-04T16:53:13.903Z,4.57
2023-04-04T16:55:40.310Z,4.88
2023-04-04T16:58:06.689Z,4.63
2023-04-04T17:00:33.266Z,4.35
2023-04-04T17:02:59.757Z,4.72
2023-04-04T17:05:26.295Z,5.25
2023-04-04T17:07:52.713Z,5.13
2023-04-04T17:10:19.313Z,5.38
2023-04-04T17:12:45.760Z,5.15
2023-04-04T17:15:12.208Z,4.95
2023-04-04T17:17:38.575Z,5.35
2023-04-04T17:20:05.594Z,5.20
2023-04-04T17:22:32.001Z,5.28
2023-04-04T17:24:58.416Z,5.20
2023-04-04T17:27:24.867Z,5.13
2023-04-04T17:29:51.321Z,4.50
2023-04-04T17:32:17.816Z,5.15
2023-04-04T17:34:44.719Z,4.60
2023-04-04T17:37:13.069Z,5.15
2023-04-04T17:39:39.490Z,4.57
2023-04-04T17:42:05.935Z,5.20
2023-04-04T17:44:32.382Z,4.53
2023-04-04T17:46:59.591Z,4.80
2023-04-04T17:49:27.055Z,4.90
2023-04-04T17:51:53.565Z,5.80
2023-04-04T17:54:20.703Z,3.85
2023-04-04T17:56:47.526Z,4.95
2023-04-04T17:59:14.816Z,5.13
2023-04-04T18:01:41.602Z,4.68
2023-04-04T18:04:08.210Z,4.28
2023-04-04T18:06:34.954Z,4.90
2023-04-04T18:09:01.469Z,4.93
2023-04-04T18:11:28.209Z,5.05
2023-04-04T18:13:54.689Z,4.65
2023-04-04T18:16:21.064Z,4.95
2023-04-04T18:18:47.478Z,4.55
2023-04-04T18:21:13.914Z,5.40
2023-04-04T18:23:40.530Z,4.43
2023-04-04T18:26:07.150Z,4.75
2023-04-04T18:28:33.621Z,5.30
2023-04-04T18:31:00.306Z,5.43
2023-04-04T18:33:27.871Z,5.45
2023-04-04T18:35:54.665Z,4.68
2023-04-04T18:38:21.292Z,5.25
2023-04-04T18:40:47.766Z,5.43
2023-04-04T18:43:14.194Z,5.63
2023-04-04T18:45:41.297Z,4.70
2023-04-04T18:48:08.547Z,5.05
2023-04-04T18:50:35.666Z,5.30
2023-04-04T18:53:02.197Z,5.25
2023-04-04T18:55:28.625Z,5.53
2023-04-04T18:57:55.349Z,5.40
2023-04-04T19:00:21.805Z,4.90
2023-04-04T19:02:49.683Z,6.05
2023-04-04T19:05:25.560Z,5.80
2023-04-04T19:07:54.226Z,4.88
2023-04-04T19:10:21.252Z,4.95
2023-04-04T19:12:47.772Z,5.10
2023-04-04T19:15:14.619Z,5.03
2023-04-04T19:17:41.188Z,5.57
2023-04-04T19:20:08.374Z,5.30
2023-04-04T19:22:34.849Z,5.25
2023-04-04T19:25:01.250Z,5.28
2023-04-04T19:27:27.769Z,5.45
2023-04-04T19:29:54.802Z,6.18
2023-04-04T19:32:24.414Z,5.43
2023-04-04T19:34:51.833Z,5.20
2023-04-04T19:37:18.638Z,5.38
2023-04-04T19:39:45.330Z,4.88
2023-04-04T19:42:12.101Z,4.63
2023-04-04T19:44:40.700Z,5.47
2023-04-04T19:47:10.202Z,5.10
2023-04-04T19:49:38.028Z,5.32
2023-04-04T19:52:05.582Z,5.35
2023-04-04T19:54:36.648Z,5.45
2023-04-04T19:57:08.609Z,5.45
2023-04-04T19:59:58.978Z,4.18
2023-04-04T20:02:32.340Z,7.10
2023-04-04T20:04:59.042Z,5.03
2023-04-04T20:07:25.621Z,5.82
2023-04-04T20:09:52.259Z,6.13
2023-04-04T20:12:22.886Z,6.07
2023-04-04T20:14:50.265Z,6.00
2023-04-04T20:17:18.010Z,5.88
2023-04-04T20:19:44.406Z,6.95
2023-04-04T20:22:10.948Z,5.80
2023-04-04T20:24:39.151Z,6.40
2023-04-04T20:27:05.806Z,6.38
2023-04-04T20:29:34.689Z,6.60
2023-04-04T20:32:07.771Z,5.78
2023-04-04T20:34:49.662Z,5.95
2023-04-04T20:37:20.690Z,5.88
2023-04-04T20:39:54.103Z,6.90
2023-04-04T20:42:29.818Z,5.43
2023-04-04T20:45:02.168Z,6.10
2023-04-04T20:47:51.268Z,5.47
2023-04-04T20:50:20.543Z,5.43
2023-04-04T20:52:50.344Z,6.65
2023-04-04T20:55:18.893Z,5.70
2023-04-04T20:57:50.164Z,7.22
2023-04-04T21:00:26.743Z,7.15
2023-04-04T21:02:53.556Z,5.38
2023-04-04T21:05:32.076Z,6.75
2023-04-04T21:07:59.786Z,6.50
2023-04-04T21:10:29.169Z,7.00
2023-04-04T21:13:03.072Z,6.40
2023-04-04T21:15:35.440Z,8.05
2023-04-04T21:18:07.806Z,6.15
2023-04-04T21:20:46.638Z,6.80
2023-04-04T21:23:28.251Z,5.95
2023-04-04T21:26:01.744Z,6.28
2023-04-04T21:28:35.881Z,6.10
2023-04-04T21:31:13.663Z,6.68
2023-04-04T21:33:53.531Z,7.13
2023-04-04T21:36:19.874Z,7.25
2023-04-04T21:38:46.320Z,6.57
2023-04-04T21:41:23.887Z,7.45
2023-04-04T21:43:51.562Z,6.90
2023-04-04T21:46:18.039Z,6.25
2023-04-04T21:48:44.449Z,7.13
2023-04-04T21:51:11.029Z,5.82
2023-04-04T21:53:37.417Z,6.88
2023-04-04T21:56:03.989Z,6.72
2023-04-04T21:58:30.678Z,6.13
2023-04-04T22:00:57.039Z,6.28
2023-04-04T22:03:23.402Z,6.07
2023-04-04T22:05:49.786Z,6.50
2023-04-04T22:08:16.200Z,6.60
2023-04-04T22:10:46.218Z,6.10
2023-04-04T22:13:22.240Z,6.50
2023-04-04T22:15:49.741Z,6.50
2023-04-04T22:18:16.977Z,6.55
2023-04-04T22:20:45.392Z,7.00
2023-04-04T22:23:13.904Z,7.07
2023-04-04T22:25:40.293Z,7.25
2023-04-04T22:28:08.428Z,7.28
2023-04-04T22:30:37.098Z,4.88
2023-04-04T22:33:05.104Z,4.78
2023-04-04T22:35:32.489Z,4.88
2023-04-04T22:38:02.980Z,5.25
2023-04-04T22:40:31.112Z,4.72
2023-04-04T22:42:58.198Z,4.03
2023-04-04T22:45:25.809Z,4.30
2023-04-04T22:47:52.426Z,4.38
2023-04-04T22:50:23.114Z,4.05
2023-04-04T22:52:49.903Z,4.55
2023-04-04T22:55:20.993Z,4.75
2023-04-04T22:57:47.690Z,4.00
2023-04-04T23:00:20.776Z,5.20
2023-04-04T23:03:07.483Z,4.43
2023-04-04T23:05:34.014Z,4.18
2023-04-04T23:08:06.507Z,4.13
2023-04-04T23:10:51.084Z,3.78
2023-04-04T23:13:28.341Z,3.85
2023-04-04T23:16:43.145Z,4.47
2023-04-04T23:19:49.543Z,3.97
2023-04-04T23:22:25.507Z,4.03
2023-04-04T23:25:07.583Z,4.68
2023-04-04T23:27:36.737Z,4.05
2023-04-04T23:30:04.791Z,4.07
2023-04-04T23:32:41.022Z,4.45
2023-04-04T23:35:15.661Z,3.80
2023-04-04T23:37:42.172Z,4.07
2023-04-04T23:40:08.913Z,3.90
2023-04-04T23:42:35.398Z,3.58
2023-04-04T23:45:02.134Z,4.30
2023-04-04T23:47:28.705Z,4.47
2023-04-04T23:49:55.142Z,3.72
2023-04-04T23:52:21.602Z,4.80
2023-04-04T23:54:47.922Z,4.07
2023-04-04T23:57:14.256Z,4.10
2023-04-04T23:59:40.599Z,3.85
